Time;durP1;ratioP1;P1;durP2;ratioP2;P2;SDS_P1;SDS_P2;PMS_P1;PMS_P2;Temp;Humidity;BMP_temperature;BMP_pressure;BME280_temperature;BME280_humidity;BME280_pressure;Samples;Min_cycle;Max_cycle;Signal;HPM_P1;HPM_P2
2023/07/21 00:22:42;;;;;;;12.25;5.30;;;;;;;31.50;48.04;96038.41;6338542;22;20071;-28
2023/07/21 00:52:23;;;;;;;19.58;5.70;;;;;;;31.55;49.10;96005.81;6338604;22;20009;-28
2023/07/21 01:08:17;;;;;;;17.92;6.82;;;;;;;31.50;49.58;95971.16;6338351;22;20040;-28
2023/07/21 01:37:39;;;;;;;14.95;5.97;;;;;;;31.38;48.66;95990.53;6338131;22;20053;-28
2023/07/21 02:07:26;;;;;;;15.13;6.57;;;;;;;31.25;48.91;95967.69;6339862;22;20053;-28
2023/07/21 02:23:19;;;;;;;15.73;6.53;;;;;;;31.17;51.12;95983.81;6339744;22;20099;-28
2023/07/21 02:52:42;;;;;;;13.30;7.13;;;;;;;31.16;52.18;95963.47;6339231;22;20017;-28
2023/07/21 03:08:33;;;;;;;16.77;7.57;;;;;;;31.17;51.92;95989.41;6339275;22;20017;-28
2023/07/21 03:11:00;;;;;;;13.88;6.80;;;;;;;31.27;51.69;95990.28;6338774;22;20038;-29
2023/07/21 03:23:30;;;;;;;13.23;5.63;;;;;;;31.13;51.72;95987.03;6339141;22;20041;-28
2023/07/21 03:53:14;;;;;;;12.80;6.10;;;;;;;30.91;50.74;96022.31;6338708;22;20063;-28
2023/07/21 04:22:33;;;;;;;15.77;6.65;;;;;;;30.86;53.06;96026.09;6338965;22;20339;-28
2023/07/21 04:52:37;;;;;;;15.07;6.13;;;;;;;30.88;53.60;96042.31;6338774;22;20037;-28
2023/07/21 05:23:11;;;;;;;;;;;;;;;30.88;54.83;96082.25;6338702;22;20022;-28
2023/07/21 05:53:28;;;;;;;14.82;7.18;;;;;;;30.76;56.78;96074.91;6337791;22;20014;-28
2023/07/21 06:09:21;;;;;;;22.42;8.00;;;;;;;31.19;57.38;96116.38;6337667;22;20355;-28
2023/07/21 06:22:39;;;;;;;17.27;7.93;;;;;;;31.18;57.93;96091.75;6337608;22;20079;-28
2023/07/21 06:38:31;;;;;;;13.32;6.43;;;;;;;30.83;57.68;96111.22;6339010;22;20025;-28
2023/07/21 06:54:23;;;;;;;17.95;7.07;;;;;;;31.21;56.25;96090.59;6338887;22;20013;-28
2023/07/21 07:07:41;;;;;;;14.57;6.72;;;;;;;31.13;57.09;96109.53;6339227;22;20103;-28
2023/07/21 07:23:34;;;;;;;15.00;7.40;;;;;;;30.96;56.22;96180.22;6338981;22;20017;-28
2023/07/21 07:52:53;;;;;;;16.58;6.28;;;;;;;30.93;55.16;96100.88;6338875;22;20013;-29
2023/07/21 08:22:47;;;;;;;15.07;6.63;;;;;;;31.05;54.15;96138.31;6338971;22;20013;-28
2023/07/21 08:38:39;;;;;;;11.02;5.63;;;;;;;31.32;53.05;96134.97;6337337;22;20340;-28
2023/07/21 09:08:00;;;;;;;17.00;6.47;;;;;;;31.72;52.56;96129.94;6338216;22;20443;-28
2023/07/21 09:24:01;;;;;;;14.85;6.20;;;;;;;31.70;50.75;96135.38;6338071;22;20017;-29
2023/07/21 09:53:25;;;;;;;17.52;5.93;;;;;;;31.83;48.99;96136.38;6337875;22;20152;-29
2023/07/21 10:09:18;;;;;;;13.73;6.63;;;;;;;31.92;49.06;96121.69;6339763;22;20327;-28
2023/07/21 10:52:55;;;;;;;10.30;3.95;;;;;;;32.11;45.97;96102.22;6339751;22;20013;-29
2023/07/21 11:08:49;;;;;;;18.77;5.25;;;;;;;32.25;45.12;96111.06;6338645;22;20040;-28
2023/07/21 11:53:15;;;;;;;13.48;4.63;;;;;;;32.38;42.91;96074.97;6303546;22;20486;-29
2023/07/21 12:24:14;;;;;;;11.68;5.25;;;;;;;32.38;42.44;96071.41;6276233;22;20070;-28
2023/07/21 13:08:02;;;;;;;11.85;4.57;;;;;;;32.58;42.58;96022.47;6338410;22;20013;-28
2023/07/21 13:23:55;;;;;;;10.95;4.28;;;;;;;32.54;41.38;96010.91;6338064;22;20018;-29
2023/07/21 13:53:13;;;;;;;15.90;4.60;;;;;;;32.51;41.28;96011.38;6339466;22;20462;-29
2023/07/21 14:23:06;;;;;;;15.32;4.97;;;;;;;32.50;42.42;96016.22;6339983;22;20060;-28
2023/07/21 14:39:05;;;;;;;15.10;4.90;;;;;;;32.59;42.82;96031.63;6339691;22;20018;-28
2023/07/21 15:08:25;;;;;;;14.98;6.47;;;;;;;32.54;44.57;96015.78;6339128;22;20080;-28
2023/07/21 15:38:13;;;;;;;18.50;4.95;;;;;;;32.40;44.09;95996.53;6339094;22;20056;-29
2023/07/21 15:54:06;;;;;;;14.32;5.20;;;;;;;32.66;43.66;96005.50;6337974;22;20022;-28
2023/07/21 16:23:28;;;;;;;14.90;4.65;;;;;;;32.58;42.85;96011.22;6338702;22;20403;-28
2023/07/21 16:53:13;;;;;;;14.40;4.53;;;;;;;32.69;42.96;96021.16;6338233;22;20049;-28
2023/07/21 17:09:05;;;;;;;12.25;4.63;;;;;;;32.65;42.23;96034.88;6338261;22;20071;-29
2023/07/21 17:38:25;;;;;;;11.55;4.65;;;;;;;32.53;46.70;96059.22;6337847;22;20022;-27
2023/07/21 18:08:19;;;;;;;13.55;5.03;;;;;;;32.11;49.69;96062.94;6337674;22;20017;-28
2023/07/21 18:38:53;;;;;;;;;;;;;;;32.16;51.37;96084.38;6340196;22;20133;-28
2023/07/21 19:08:22;;;;;;;13.23;6.10;;;;;;;31.92;53.27;96116.81;6339652;22;20094;-28
2023/07/21 19:24:40;;;;;;;15.88;7.30;;;;;;;31.98;52.76;96136.97;6339498;22;20053;-28
2023/07/21 19:54:06;;;;;;;14.18;5.40;;;;;;;31.83;54.37;96147.59;6337946;22;20025;-28
2023/07/21 20:23:51;;;;;;;14.38;5.65;;;;;;;31.52;56.66;96172.34;6338734;22;20029;-28
2023/07/21 20:39:44;;;;;;;15.75;7.00;;;;;;;31.52;56.24;96192.72;6338266;22;20014;-28
2023/07/21 21:09:03;;;;;;;17.08;5.38;;;;;;;31.56;57.14;96211.91;6338769;22;20062;-29
2023/07/21 21:24:56;;;;;;;17.92;6.20;;;;;;;31.33;58.31;96217.72;6337891;22;20017;-29
2023/07/21 21:40:48;;;;;;;12.80;6.32;;;;;;;31.46;57.54;96222.28;6338122;22;20018;-28
2023/07/21 21:53:30;;;;;;;15.13;5.68;;;;;;;31.35;57.45;96243.09;6337927;22;20103;-28
2023/07/21 22:09:22;;;;;;;19.42;7.10;;;;;;;31.32;57.44;96242.19;6277666;22;20057;-29
2023/07/21 22:25:15;;;;;;;16.40;6.88;;;;;;;31.14;57.94;96231.47;6278243;22;20010;-29
2023/07/21 22:38:33;;;;;;;17.35;6.28;;;;;;;31.21;57.17;96239.09;6277545;22;20345;-28
2023/07/21 23:08:33;;;;;;;15.52;6.35;;;;;;;31.14;57.22;96231.47;6339245;22;20063;-28
2023/07/21 23:24:26;;;;;;;13.80;6.47;;;;;;;30.94;57.58;96231.19;6339121;22;20060;-28
2023/07/21 23:53:45;;;;;;;19.45;5.95;;;;;;;31.04;56.25;96229.25;6337903;22;20072;-28
